createdAt,value
2019-01-23T00:01:48.361Z,23.70
2019-01-23T00:06:41.462Z,24.37
2019-01-23T00:11:34.521Z,23.23
2019-01-23T00:16:27.590Z,24.03
2019-01-23T00:21:20.465Z,23.80
2019-01-23T00:26:14.657Z,23.87
2019-01-23T00:31:07.723Z,25.00
2019-01-23T00:36:00.815Z,25.57
2019-01-23T00:40:53.804Z,25.20
2019-01-23T00:45:46.835Z,22.40
2019-01-23T00:50:39.902Z,25.57
2019-01-23T00:55:33.278Z,24.17
2019-01-23T01:00:26.823Z,23.07
2019-01-23T01:05:20.429Z,24.70
2019-01-23T01:10:14.613Z,25.17
2019-01-23T01:15:13.299Z,23.73
2019-01-23T01:20:04.255Z,26.90
2019-01-23T01:24:57.225Z,24.30
2019-01-23T01:29:50.195Z,24.00
2019-01-23T01:34:43.166Z,23.53
2019-01-23T01:39:36.134Z,24.43
2019-01-23T01:44:29.105Z,24.07
2019-01-23T01:49:23.736Z,24.17
2019-01-23T01:54:16.669Z,25.40
2019-01-23T01:59:09.745Z,24.67
2019-01-23T02:04:02.808Z,23.43
2019-01-23T02:08:55.775Z,26.87
2019-01-23T02:13:50.586Z,25.07
2019-01-23T02:18:43.558Z,24.23
2019-01-23T02:23:36.627Z,24.17
2019-01-23T02:28:29.693Z,23.57
2019-01-23T02:33:22.660Z,23.37
2019-01-23T02:38:15.735Z,24.63
2019-01-23T02:43:08.805Z,22.87
2019-01-23T02:48:01.890Z,23.60
2019-01-23T02:52:54.941Z,22.87
2019-01-23T02:57:47.928Z,22.33
2019-01-23T03:02:40.881Z,23.30
2019-01-23T03:07:33.946Z,21.80
2019-01-23T03:12:27.120Z,21.90
2019-01-23T03:17:20.103Z,24.27
2019-01-23T03:22:13.975Z,23.57
2019-01-23T03:27:07.043Z,22.87
2019-01-23T03:32:00.119Z,22.53
2019-01-23T03:36:53.177Z,21.43
2019-01-23T03:41:46.072Z,22.77
2019-01-23T03:46:39.150Z,23.03
2019-01-23T03:51:32.103Z,21.20
2019-01-23T03:56:25.269Z,23.83
2019-01-23T04:01:18.244Z,20.87
2019-01-23T04:06:11.198Z,21.87
2019-01-23T04:11:04.476Z,22.00
2019-01-23T04:15:57.424Z,21.17
2019-01-23T04:20:50.228Z,21.07
2019-01-23T04:25:46.656Z,20.90
2019-01-23T04:30:39.497Z,20.83
2019-01-23T04:35:32.397Z,20.03
2019-01-23T04:40:25.264Z,21.50
2019-01-23T04:45:18.233Z,21.20
2019-01-23T04:50:13.339Z,22.30
2019-01-23T04:55:06.417Z,20.53
2019-01-23T04:59:59.258Z,22.97
2019-01-23T05:04:52.290Z,22.40
2019-01-23T05:09:45.156Z,20.37
2019-01-23T05:14:38.062Z,21.47
2019-01-23T05:19:30.916Z,19.20
2019-01-23T05:24:23.751Z,20.37
2019-01-23T05:29:16.600Z,20.97
2019-01-23T05:34:09.432Z,23.00
2019-01-23T05:39:04.109Z,21.80
2019-01-23T05:43:56.928Z,21.00
2019-01-23T05:48:49.799Z,21.37
2019-01-23T05:53:42.596Z,22.70
2019-01-23T05:58:35.466Z,24.13
2019-01-23T06:03:28.420Z,23.97
2019-01-23T06:08:21.275Z,24.43
2019-01-23T06:13:14.149Z,24.97
2019-01-23T06:18:08.143Z,25.93
2019-01-23T06:23:01.005Z,23.73
2019-01-23T06:27:53.841Z,25.43
2019-01-23T06:32:46.690Z,22.90
2019-01-23T06:37:39.535Z,25.50
2019-01-23T06:42:32.370Z,24.33
2019-01-23T06:47:25.203Z,23.07
2019-01-23T06:52:18.047Z,26.30
2019-01-23T06:57:10.910Z,25.53
2019-01-23T07:02:05.367Z,24.97
2019-01-23T07:06:58.192Z,23.17
2019-01-23T07:11:51.103Z,23.83
2019-01-23T07:16:43.943Z,25.13
2019-01-23T07:21:36.789Z,23.57
2019-01-23T07:26:29.637Z,25.37
2019-01-23T07:31:22.522Z,22.63
2019-01-23T07:36:34.821Z,21.93
2019-01-23T07:41:27.627Z,21.70
2019-01-23T07:46:22.268Z,21.70
2019-01-23T07:51:16.115Z,23.43
2019-01-23T07:56:09.050Z,21.30
2019-01-23T08:01:01.873Z,23.30
2019-01-23T08:05:54.721Z,22.40
2019-01-23T08:10:47.596Z,22.40
2019-01-23T08:15:40.457Z,21.73
2019-01-23T08:20:33.263Z,22.57
2019-01-23T08:25:26.224Z,24.97
2019-01-23T08:30:21.070Z,23.17
2019-01-23T08:35:14.840Z,21.17
2019-01-23T08:40:10.406Z,23.27
2019-01-23T08:45:05.093Z,22.97
2019-01-23T08:49:57.933Z,21.03
2019-01-23T08:54:50.736Z,24.43
2019-01-23T08:59:43.605Z,23.43
2019-01-23T09:04:36.476Z,24.33
2019-01-23T09:09:48.772Z,22.03
2019-01-23T09:14:41.575Z,22.87
2019-01-23T09:19:34.433Z,23.53
2019-01-23T09:24:29.797Z,21.60
2019-01-23T09:29:22.633Z,23.70
2019-01-23T09:35:53.207Z,22.30
2019-01-23T09:41:24.122Z,24.17
2019-01-23T09:46:50.511Z,22.30
2019-01-23T09:53:02.519Z,22.43
2019-01-23T09:57:59.513Z,23.20
2019-01-23T10:02:56.692Z,20.90
2019-01-23T10:07:53.733Z,21.47
2019-01-23T10:12:50.400Z,21.37
2019-01-23T10:17:48.694Z,20.53
2019-01-23T10:22:45.612Z,22.63
2019-01-23T10:27:43.252Z,19.60
2019-01-23T10:32:40.414Z,23.17
2019-01-23T10:37:37.815Z,21.13
2019-01-23T10:42:35.033Z,19.53
2019-01-23T10:47:31.753Z,20.10
2019-01-23T10:52:29.138Z,20.33
2019-01-23T10:57:25.705Z,20.03
2019-01-23T11:02:21.154Z,22.23
2019-01-23T11:07:18.723Z,20.60
2019-01-23T11:12:16.428Z,19.20
2019-01-23T11:17:13.711Z,20.03
2019-01-23T11:22:10.271Z,21.93
2019-01-23T11:27:06.457Z,19.47
2019-01-23T11:32:02.334Z,19.70
2019-01-23T11:36:57.719Z,21.50
2019-01-23T11:41:53.929Z,22.13
2019-01-23T11:46:49.471Z,19.47
2019-01-23T11:51:44.834Z,20.73
2019-01-23T11:56:40.207Z,21.87
2019-01-23T12:01:36.570Z,19.60
2019-01-23T12:06:31.929Z,19.33
2019-01-23T12:11:26.515Z,19.03
2019-01-23T12:16:22.925Z,19.60
2019-01-23T12:21:18.551Z,19.13
2019-01-23T12:26:14.007Z,19.23
2019-01-23T12:31:09.671Z,21.23
2019-01-23T12:36:06.186Z,20.13
2019-01-23T12:41:02.266Z,19.93
2019-01-23T12:45:55.572Z,19.73
2019-01-23T12:50:48.982Z,20.63
2019-01-23T12:55:41.935Z,20.83
2019-01-23T13:00:34.917Z,21.03
2019-01-23T13:05:28.832Z,20.60
2019-01-23T13:10:22.230Z,20.70
2019-01-23T13:15:22.172Z,21.37
2019-01-23T13:20:16.197Z,22.20
2019-01-23T13:25:13.925Z,20.40
2019-01-23T13:30:10.752Z,22.00
2019-01-23T13:35:05.542Z,21.17
2019-01-23T13:39:58.359Z,20.43
2019-01-23T13:44:51.236Z,20.60
2019-01-23T13:49:44.076Z,20.90
2019-01-23T13:54:36.929Z,19.73
2019-01-23T13:59:29.756Z,19.93
2019-01-23T14:04:22.602Z,19.13
2019-01-23T14:09:15.443Z,20.50
2019-01-23T14:14:08.297Z,19.50
2019-01-23T14:19:01.149Z,21.43
2019-01-23T14:23:53.974Z,20.17
2019-01-23T14:28:46.848Z,19.63
2019-01-23T14:33:39.781Z,20.70
2019-01-23T14:38:32.663Z,20.70
2019-01-23T14:43:25.519Z,20.73
2019-01-23T14:48:18.362Z,19.93
2019-01-23T14:53:11.201Z,20.00
2019-01-23T14:58:04.766Z,19.20
2019-01-23T15:02:57.601Z,21.03
2019-01-23T15:07:50.465Z,18.90
2019-01-23T15:12:43.284Z,18.13
2019-01-23T15:17:36.182Z,18.33
2019-01-23T15:22:29.401Z,18.00
2019-01-23T15:27:24.143Z,18.17
2019-01-23T15:32:17.606Z,16.90
2019-01-23T15:37:10.592Z,18.20
2019-01-23T15:42:03.440Z,18.73
2019-01-23T15:46:56.295Z,18.10
2019-01-23T15:51:49.170Z,17.97
2019-01-23T15:56:41.999Z,18.33
2019-01-23T16:01:34.831Z,17.67
2019-01-23T16:06:27.669Z,17.43
2019-01-23T16:11:20.541Z,17.67
2019-01-23T16:16:13.374Z,16.77
2019-01-23T16:21:06.241Z,16.10
2019-01-23T16:25:59.100Z,15.83
2019-01-23T16:30:51.935Z,17.67
2019-01-23T16:35:44.791Z,17.17
2019-01-23T16:40:37.638Z,16.80
2019-01-23T16:45:30.596Z,18.50
2019-01-23T16:50:24.650Z,16.23
2019-01-23T16:55:17.662Z,16.43
2019-01-23T17:00:14.026Z,16.70
2019-01-23T17:05:12.921Z,15.93
2019-01-23T17:10:12.882Z,16.97
2019-01-23T17:15:07.552Z,17.17
2019-01-23T17:20:03.875Z,17.17
2019-01-23T17:24:56.739Z,16.20
2019-01-23T17:29:49.603Z,15.57
2019-01-23T17:34:42.447Z,16.87
2019-01-23T17:39:35.346Z,16.80
2019-01-23T17:44:28.206Z,14.93
2019-01-23T17:49:21.062Z,15.77
2019-01-23T17:54:16.042Z,16.17
2019-01-23T17:59:08.749Z,15.97
2019-01-23T18:04:01.608Z,16.63
2019-01-23T18:08:54.444Z,15.70
2019-01-23T18:13:47.312Z,15.83
2019-01-23T18:18:40.167Z,16.23
2019-01-23T18:23:33.062Z,17.40
2019-01-23T18:28:25.897Z,16.47
2019-01-23T18:33:25.404Z,16.87
2019-01-23T18:38:53.194Z,17.87
2019-01-23T18:44:28.342Z,17.67
2019-01-23T18:50:12.270Z,16.33
2019-01-23T18:55:09.046Z,17.07
2019-01-23T19:00:01.992Z,17.37
2019-01-23T19:04:54.838Z,16.97
2019-01-23T19:09:47.734Z,17.53
2019-01-23T19:14:40.581Z,17.27
2019-01-23T19:19:33.438Z,17.80
2019-01-23T19:24:26.311Z,17.60
2019-01-23T19:29:19.163Z,17.17
2019-01-23T19:34:12.011Z,17.10
2019-01-23T19:39:08.178Z,17.33
2019-01-23T19:44:01.023Z,17.10
2019-01-23T19:48:54.165Z,16.63
2019-01-23T19:53:46.971Z,16.77
2019-01-23T19:58:39.811Z,17.73
2019-01-23T20:03:32.626Z,18.33
2019-01-23T20:08:27.308Z,16.87
2019-01-23T20:13:20.138Z,17.83
2019-01-23T20:18:12.988Z,18.90
2019-01-23T20:23:05.805Z,19.07
2019-01-23T20:27:58.694Z,18.63
2019-01-23T20:32:51.534Z,18.23
2019-01-23T20:37:44.443Z,16.77
2019-01-23T20:42:37.249Z,16.73
2019-01-23T20:47:30.113Z,18.03
2019-01-23T20:52:22.967Z,18.23
2019-01-23T20:57:15.786Z,17.07
2019-01-23T21:02:08.859Z,19.30
2019-01-23T21:07:01.660Z,18.20
2019-01-23T21:11:54.508Z,17.47
2019-01-23T21:16:47.410Z,18.53
2019-01-23T21:21:40.258Z,18.60
2019-01-23T21:26:33.087Z,18.17
2019-01-23T21:31:25.964Z,18.53
2019-01-23T21:36:18.888Z,18.07
2019-01-23T21:41:11.721Z,19.37
2019-01-23T21:46:04.785Z,19.67
2019-01-23T21:50:57.638Z,17.50
2019-01-23T21:55:50.539Z,18.30
2019-01-23T22:00:46.750Z,19.63
2019-01-23T22:05:39.724Z,20.20
2019-01-23T22:10:32.662Z,23.10
2019-01-23T22:15:26.193Z,23.17
2019-01-23T22:20:19.701Z,22.77
2019-01-23T22:25:14.691Z,23.80
2019-01-23T22:30:12.854Z,23.47
2019-01-23T22:35:06.462Z,24.50
2019-01-23T22:39:59.275Z,24.40
2019-01-23T22:44:52.126Z,25.40
2019-01-23T22:49:44.933Z,23.20
2019-01-23T22:54:37.770Z,23.80
2019-01-23T22:59:30.600Z,22.57
2019-01-23T23:04:23.465Z,22.73
2019-01-23T23:09:16.279Z,23.57
2019-01-23T23:14:09.114Z,23.50
2019-01-23T23:19:01.975Z,24.70
2019-01-23T23:23:54.813Z,24.53
2019-01-23T23:28:47.668Z,23.30
2019-01-23T23:33:40.532Z,22.87
2019-01-23T23:38:33.380Z,22.43
2019-01-23T23:43:26.204Z,24.70
2019-01-23T23:48:19.055Z,23.00
2019-01-23T23:53:11.894Z,23.50
2019-01-23T23:58:04.762Z,21.60
